sensor_id;sensor_type;location;lat;lon;timestamp;P1;durP1;ratioP1;P2;durP2;ratioP2
28427;SDS011;15662;49.128;8.520;2022-08-26T00:00:48;3.65;;;3.28;;
28427;SDS011;15662;49.128;8.520;2022-08-26T00:03:17;3.65;;;3.38;;
28427;SDS011;15662;49.128;8.520;2022-08-26T00:05:47;3.65;;;3.35;;
28427;SDS011;15662;49.128;8.520;2022-08-26T00:08:18;3.78;;;3.28;;
28427;SDS011;15662;49.128;8.520;2022-08-26T00:10:47;3.95;;;3.40;;
28427;SDS011;15662;49.128;8.520;2022-08-26T00:13:16;6.65;;;3.40;;
28427;SDS011;15662;49.128;8.520;2022-08-26T00:15:45;7.15;;;3.50;;
28427;SDS011;15662;49.128;8.520;2022-08-26T00:18:15;4.70;;;3.20;;
28427;SDS011;15662;49.128;8.520;2022-08-26T00:20:48;5.05;;;3.10;;
28427;SDS011;15662;49.128;8.520;2022-08-26T00:23:21;5.57;;;3.45;;
28427;SDS011;15662;49.128;8.520;2022-08-26T00:25:59;6.70;;;3.63;;
28427;SDS011;15662;49.128;8.520;2022-08-26T00:28:29;4.85;;;3.45;;
28427;SDS011;15662;49.128;8.520;2022-08-26T00:30:57;3.90;;;3.28;;
28427;SDS011;15662;49.128;8.520;2022-08-26T00:33:26;5.07;;;3.42;;
28427;SDS011;15662;49.128;8.520;2022-08-26T00:35:54;3.97;;;3.00;;
28427;SDS011;15662;49.128;8.520;2022-08-26T00:38:23;4.00;;;2.80;;
28427;SDS011;15662;49.128;8.520;2022-08-26T00:40:55;3.50;;;3.25;;
28427;SDS011;15662;49.128;8.520;2022-08-26T00:43:25;4.22;;;3.03;;
28427;SDS011;15662;49.128;8.520;2022-08-26T00:46:13;2.97;;;2.67;;
28427;SDS011;15662;49.128;8.520;2022-08-26T00:48:53;5.28;;;2.83;;
28427;SDS011;15662;49.128;8.520;2022-08-26T00:51:50;3.90;;;3.05;;
28427;SDS011;15662;49.128;8.520;2022-08-26T00:54:23;3.47;;;3.17;;
28427;SDS011;15662;49.128;8.520;2022-08-26T00:56:56;4.10;;;3.25;;
28427;SDS011;15662;49.128;8.520;2022-08-26T00:59:46;4.90;;;3.38;;
28427;SDS011;15662;49.128;8.520;2022-08-26T01:02:23;3.70;;;3.30;;
28427;SDS011;15662;49.128;8.520;2022-08-26T01:04:56;3.33;;;2.97;;
28427;SDS011;15662;49.128;8.520;2022-08-26T01:07:29;3.40;;;3.13;;
28427;SDS011;15662;49.128;8.520;2022-08-26T01:10:04;3.63;;;3.30;;
28427;SDS011;15662;49.128;8.520;2022-08-26T01:12:40;4.22;;;3.00;;
28427;SDS011;15662;49.128;8.520;2022-08-26T01:15:16;3.15;;;2.92;;
28427;SDS011;15662;49.128;8.520;2022-08-26T01:17:59;5.25;;;3.17;;
28427;SDS011;15662;49.128;8.520;2022-08-26T01:23:30;3.83;;;3.10;;
28427;SDS011;15662;49.128;8.520;2022-08-26T01:26:05;3.70;;;3.40;;
28427;SDS011;15662;49.128;8.520;2022-08-26T01:28:46;3.70;;;3.40;;
28427;SDS011;15662;49.128;8.520;2022-08-26T01:31:19;5.10;;;3.65;;
28427;SDS011;15662;49.128;8.520;2022-08-26T01:37:00;3.20;;;2.95;;
28427;SDS011;15662;49.128;8.520;2022-08-26T01:39:42;3.70;;;3.40;;
28427;SDS011;15662;49.128;8.520;2022-08-26T01:42:14;3.55;;;3.03;;
28427;SDS011;15662;49.128;8.520;2022-08-26T01:44:46;3.47;;;3.27;;
28427;SDS011;15662;49.128;8.520;2022-08-26T01:47:30;4.18;;;3.08;;
28427;SDS011;15662;49.128;8.520;2022-08-26T01:50:03;3.53;;;3.22;;
28427;SDS011;15662;49.128;8.520;2022-08-26T01:53:00;3.78;;;3.35;;
28427;SDS011;15662;49.128;8.520;2022-08-26T01:55:38;4.10;;;3.80;;
28427;SDS011;15662;49.128;8.520;2022-08-26T01:58:13;3.70;;;3.40;;
28427;SDS011;15662;49.128;8.520;2022-08-26T02:00:47;3.72;;;3.45;;
28427;SDS011;15662;49.128;8.520;2022-08-26T02:03:17;3.47;;;3.28;;
28427;SDS011;15662;49.128;8.520;2022-08-26T02:06:02;3.78;;;3.47;;
28427;SDS011;15662;49.128;8.520;2022-08-26T02:11:11;3.58;;;3.25;;
28427;SDS011;15662;49.128;8.520;2022-08-26T02:13:51;3.38;;;3.17;;
28427;SDS011;15662;49.128;8.520;2022-08-26T02:16:26;4.53;;;3.58;;
28427;SDS011;15662;49.128;8.520;2022-08-26T02:19:02;3.70;;;3.50;;
28427;SDS011;15662;49.128;8.520;2022-08-26T02:21:43;5.30;;;3.35;;
28427;SDS011;15662;49.128;8.520;2022-08-26T02:24:21;5.50;;;3.40;;
28427;SDS011;15662;49.128;8.520;2022-08-26T02:26:56;3.40;;;3.17;;
28427;SDS011;15662;49.128;8.520;2022-08-26T02:29:31;3.30;;;3.10;;
28427;SDS011;15662;49.128;8.520;2022-08-26T02:32:07;5.40;;;3.50;;
28427;SDS011;15662;49.128;8.520;2022-08-26T02:34:38;3.03;;;2.83;;
28427;SDS011;15662;49.128;8.520;2022-08-26T02:37:08;3.80;;;3.38;;
28427;SDS011;15662;49.128;8.520;2022-08-26T02:39:38;3.42;;;3.13;;
28427;SDS011;15662;49.128;8.520;2022-08-26T02:42:08;4.80;;;3.10;;
28427;SDS011;15662;49.128;8.520;2022-08-26T02:44:38;5.85;;;3.22;;
28427;SDS011;15662;49.128;8.520;2022-08-26T02:47:07;3.53;;;3.22;;
28427;SDS011;15662;49.128;8.520;2022-08-26T02:49:35;4.97;;;3.47;;
28427;SDS011;15662;49.128;8.520;2022-08-26T02:52:10;3.60;;;3.30;;
28427;SDS011;15662;49.128;8.520;2022-08-26T02:54:40;4.03;;;3.63;;
28427;SDS011;15662;49.128;8.520;2022-08-26T02:57:08;3.92;;;3.63;;
28427;SDS011;15662;49.128;8.520;2022-08-26T02:59:40;3.50;;;3.25;;
28427;SDS011;15662;49.128;8.520;2022-08-26T03:02:08;3.72;;;3.50;;
28427;SDS011;15662;49.128;8.520;2022-08-26T03:04:38;5.78;;;3.80;;
28427;SDS011;15662;49.128;8.520;2022-08-26T03:07:24;4.05;;;3.75;;
28427;SDS011;15662;49.128;8.520;2022-08-26T03:09:54;3.60;;;3.30;;
28427;SDS011;15662;49.128;8.520;2022-08-26T03:12:23;5.43;;;3.53;;
28427;SDS011;15662;49.128;8.520;2022-08-26T03:14:51;4.18;;;3.78;;
28427;SDS011;15662;49.128;8.520;2022-08-26T03:17:21;3.70;;;3.40;;
28427;SDS011;15662;49.128;8.520;2022-08-26T03:19:53;3.92;;;3.47;;
28427;SDS011;15662;49.128;8.520;2022-08-26T03:22:23;3.78;;;3.53;;
28427;SDS011;15662;49.128;8.520;2022-08-26T03:24:54;4.95;;;3.80;;
28427;SDS011;15662;49.128;8.520;2022-08-26T03:27:23;3.83;;;3.58;;
28427;SDS011;15662;49.128;8.520;2022-08-26T03:29:52;5.00;;;3.50;;
28427;SDS011;15662;49.128;8.520;2022-08-26T03:32:41;3.90;;;3.55;;
28427;SDS011;15662;49.128;8.520;2022-08-26T03:35:09;4.68;;;3.40;;
28427;SDS011;15662;49.128;8.520;2022-08-26T03:37:39;3.78;;;3.35;;
28427;SDS011;15662;49.128;8.520;2022-08-26T03:40:08;3.50;;;3.30;;
28427;SDS011;15662;49.128;8.520;2022-08-26T03:42:39;4.13;;;3.72;;
28427;SDS011;15662;49.128;8.520;2022-08-26T03:45:12;3.97;;;3.67;;
28427;SDS011;15662;49.128;8.520;2022-08-26T03:47:42;5.72;;;3.95;;
28427;SDS011;15662;49.128;8.520;2022-08-26T03:50:12;4.32;;;3.92;;
28427;SDS011;15662;49.128;8.520;2022-08-26T03:52:49;4.13;;;3.83;;
28427;SDS011;15662;49.128;8.520;2022-08-26T03:55:25;4.38;;;3.65;;
28427;SDS011;15662;49.128;8.520;2022-08-26T03:57:59;4.07;;;3.78;;
28427;SDS011;15662;49.128;8.520;2022-08-26T04:00:29;4.07;;;3.67;;
28427;SDS011;15662;49.128;8.520;2022-08-26T04:03:00;5.00;;;3.70;;
28427;SDS011;15662;49.128;8.520;2022-08-26T04:05:29;4.20;;;3.67;;
28427;SDS011;15662;49.128;8.520;2022-08-26T04:07:58;3.95;;;3.65;;
28427;SDS011;15662;49.128;8.520;2022-08-26T04:10:26;4.28;;;3.97;;
28427;SDS011;15662;49.128;8.520;2022-08-26T04:12:57;4.13;;;3.83;;
28427;SDS011;15662;49.128;8.520;2022-08-26T04:15:27;4.00;;;3.63;;
28427;SDS011;15662;49.128;8.520;2022-08-26T04:17:56;4.30;;;3.95;;
28427;SDS011;15662;49.128;8.520;2022-08-26T04:20:25;3.92;;;3.53;;
28427;SDS011;15662;49.128;8.520;2022-08-26T04:22:54;3.95;;;3.65;;
28427;SDS011;15662;49.128;8.520;2022-08-26T04:25:23;4.00;;;3.70;;
28427;SDS011;15662;49.128;8.520;2022-08-26T04:27:52;3.80;;;3.50;;
28427;SDS011;15662;49.128;8.520;2022-08-26T04:30:20;4.07;;;3.78;;
28427;SDS011;15662;49.128;8.520;2022-08-26T04:32:49;4.22;;;3.85;;
28427;SDS011;15662;49.128;8.520;2022-08-26T04:35:19;5.43;;;3.55;;
28427;SDS011;15662;49.128;8.520;2022-08-26T04:37:52;4.60;;;4.28;;
28427;SDS011;15662;49.128;8.520;2022-08-26T04:40:20;4.05;;;3.75;;
28427;SDS011;15662;49.128;8.520;2022-08-26T04:42:49;4.40;;;3.90;;
28427;SDS011;15662;49.128;8.520;2022-08-26T04:45:18;4.57;;;4.18;;
28427;SDS011;15662;49.128;8.520;2022-08-26T04:47:51;4.40;;;4.10;;
28427;SDS011;15662;49.128;8.520;2022-08-26T04:50:22;4.20;;;3.90;;
28427;SDS011;15662;49.128;8.520;2022-08-26T04:52:52;4.07;;;3.78;;
28427;SDS011;15662;49.128;8.520;2022-08-26T04:55:21;4.10;;;3.80;;
28427;SDS011;15662;49.128;8.520;2022-08-26T04:58:05;5.20;;;4.20;;
28427;SDS011;15662;49.128;8.520;2022-08-26T05:00:37;4.30;;;4.00;;
28427;SDS011;15662;49.128;8.520;2022-08-26T05:03:07;4.30;;;4.00;;
28427;SDS011;15662;49.128;8.520;2022-08-26T05:05:38;4.68;;;4.28;;
28427;SDS011;15662;49.128;8.520;2022-08-26T05:08:10;4.65;;;4.10;;
28427;SDS011;15662;49.128;8.520;2022-08-26T05:10:42;7.18;;;4.72;;
28427;SDS011;15662;49.128;8.520;2022-08-26T05:13:18;5.15;;;4.35;;
28427;SDS011;15662;49.128;8.520;2022-08-26T05:15:49;4.13;;;3.83;;
28427;SDS011;15662;49.128;8.520;2022-08-26T05:18:19;4.70;;;4.22;;
28427;SDS011;15662;49.128;8.520;2022-08-26T05:20:51;4.70;;;3.97;;
28427;SDS011;15662;49.128;8.520;2022-08-26T05:23:21;4.53;;;4.13;;
28427;SDS011;15662;49.128;8.520;2022-08-26T05:25:51;5.55;;;4.38;;
28427;SDS011;15662;49.128;8.520;2022-08-26T05:28:27;4.22;;;3.92;;
28427;SDS011;15662;49.128;8.520;2022-08-26T05:30:56;4.25;;;3.95;;
28427;SDS011;15662;49.128;8.520;2022-08-26T05:33:24;3.90;;;3.60;;
28427;SDS011;15662;49.128;8.520;2022-08-26T05:35:54;4.40;;;3.97;;
28427;SDS011;15662;49.128;8.520;2022-08-26T05:38:22;4.50;;;4.03;;
28427;SDS011;15662;49.128;8.520;2022-08-26T05:40:56;4.20;;;3.80;;
28427;SDS011;15662;49.128;8.520;2022-08-26T05:43:26;5.50;;;3.73;;
28427;SDS011;15662;49.128;8.520;2022-08-26T05:46:03;5.50;;;3.88;;
28427;SDS011;15662;49.128;8.520;2022-08-26T05:48:33;4.10;;;3.70;;
28427;SDS011;15662;49.128;8.520;2022-08-26T05:51:05;10.13;;;4.50;;
28427;SDS011;15662;49.128;8.520;2022-08-26T05:53:36;6.43;;;3.67;;
28427;SDS011;15662;49.128;8.520;2022-08-26T05:56:12;6.07;;;4.10;;
28427;SDS011;15662;49.128;8.520;2022-08-26T05:58:43;5.03;;;4.25;;
28427;SDS011;15662;49.128;8.520;2022-08-26T06:01:13;4.72;;;4.32;;
28427;SDS011;15662;49.128;8.520;2022-08-26T06:03:49;5.35;;;4.22;;
28427;SDS011;15662;49.128;8.520;2022-08-26T06:06:30;6.03;;;4.40;;
28427;SDS011;15662;49.128;8.520;2022-08-26T06:09:04;4.43;;;4.03;;
28427;SDS011;15662;49.128;8.520;2022-08-26T06:11:37;7.85;;;4.07;;
28427;SDS011;15662;49.128;8.520;2022-08-26T06:14:06;5.43;;;4.03;;
28427;SDS011;15662;49.128;8.520;2022-08-26T06:16:36;4.68;;;4.28;;
28427;SDS011;15662;49.128;8.520;2022-08-26T06:19:07;4.25;;;3.92;;
28427;SDS011;15662;49.128;8.520;2022-08-26T06:21:38;4.50;;;4.10;;
28427;SDS011;15662;49.128;8.520;2022-08-26T06:24:29;7.28;;;4.10;;
28427;SDS011;15662;49.128;8.520;2022-08-26T06:27:45;3.90;;;3.60;;
28427;SDS011;15662;49.128;8.520;2022-08-26T06:30:13;3.97;;;3.65;;
28427;SDS011;15662;49.128;8.520;2022-08-26T06:32:44;4.20;;;3.80;;
28427;SDS011;15662;49.128;8.520;2022-08-26T06:35:13;6.50;;;3.78;;
28427;SDS011;15662;49.128;8.520;2022-08-26T06:37:42;3.90;;;3.63;;
28427;SDS011;15662;49.128;8.520;2022-08-26T06:40:10;5.00;;;3.38;;
28427;SDS011;15662;49.128;8.520;2022-08-26T06:42:39;4.57;;;3.85;;
28427;SDS011;15662;49.128;8.520;2022-08-26T06:45:08;7.80;;;4.00;;
28427;SDS011;15662;49.128;8.520;2022-08-26T06:47:37;4.50;;;4.10;;
28427;SDS011;15662;49.128;8.520;2022-08-26T06:50:06;4.35;;;3.80;;
28427;SDS011;15662;49.128;8.520;2022-08-26T06:52:34;4.13;;;3.63;;
28427;SDS011;15662;49.128;8.520;2022-08-26T06:55:03;4.03;;;3.63;;
28427;SDS011;15662;49.128;8.520;2022-08-26T06:57:33;3.92;;;3.53;;
28427;SDS011;15662;49.128;8.520;2022-08-26T07:00:06;5.22;;;3.97;;
28427;SDS011;15662;49.128;8.520;2022-08-26T07:02:38;4.15;;;3.85;;
28427;SDS011;15662;49.128;8.520;2022-08-26T07:05:13;4.97;;;3.83;;
28427;SDS011;15662;49.128;8.520;2022-08-26T07:07:42;4.38;;;3.70;;
28427;SDS011;15662;49.128;8.520;2022-08-26T07:10:11;4.30;;;3.90;;
28427;SDS011;15662;49.128;8.520;2022-08-26T07:12:40;4.60;;;4.30;;
28427;SDS011;15662;49.128;8.520;2022-08-26T07:15:13;4.32;;;3.75;;
28427;SDS011;15662;49.128;8.520;2022-08-26T07:17:42;4.07;;;3.67;;
28427;SDS011;15662;49.128;8.520;2022-08-26T07:20:11;4.20;;;3.88;;
28427;SDS011;15662;49.128;8.520;2022-08-26T07:22:40;5.22;;;3.92;;
28427;SDS011;15662;49.128;8.520;2022-08-26T07:25:11;5.00;;;3.90;;
28427;SDS011;15662;49.128;8.520;2022-08-26T07:27:39;4.82;;;3.75;;
28427;SDS011;15662;49.128;8.520;2022-08-26T07:30:08;6.05;;;3.90;;
28427;SDS011;15662;49.128;8.520;2022-08-26T07:32:41;4.18;;;3.78;;
28427;SDS011;15662;49.128;8.520;2022-08-26T07:35:09;4.20;;;3.90;;
28427;SDS011;15662;49.128;8.520;2022-08-26T07:37:39;4.00;;;3.70;;
28427;SDS011;15662;49.128;8.520;2022-08-26T07:40:07;4.10;;;3.67;;
28427;SDS011;15662;49.128;8.520;2022-08-26T07:42:36;4.20;;;3.90;;
28427;SDS011;15662;49.128;8.520;2022-08-26T07:45:06;4.30;;;3.70;;
28427;SDS011;15662;49.128;8.520;2022-08-26T07:47:36;6.05;;;5.22;;
28427;SDS011;15662;49.128;8.520;2022-08-26T07:50:07;5.25;;;4.75;;
28427;SDS011;15662;49.128;8.520;2022-08-26T07:52:35;4.70;;;4.30;;
28427;SDS011;15662;49.128;8.520;2022-08-26T07:55:06;6.85;;;4.78;;
28427;SDS011;15662;49.128;8.520;2022-08-26T07:57:38;4.90;;;3.75;;
28427;SDS011;15662;49.128;8.520;2022-08-26T08:00:08;3.80;;;3.50;;
28427;SDS011;15662;49.128;8.520;2022-08-26T08:02:43;4.07;;;3.78;;
28427;SDS011;15662;49.128;8.520;2022-08-26T08:05:14;4.05;;;3.75;;
28427;SDS011;15662;49.128;8.520;2022-08-26T08:07:53;3.83;;;3.50;;
28427;SDS011;15662;49.128;8.520;2022-08-26T08:10:41;3.63;;;3.40;;
28427;SDS011;15662;49.128;8.520;2022-08-26T08:13:14;5.75;;;3.85;;
28427;SDS011;15662;49.128;8.520;2022-08-26T08:15:45;4.38;;;3.92;;
28427;SDS011;15662;49.128;8.520;2022-08-26T08:18:16;3.75;;;3.47;;
28427;SDS011;15662;49.128;8.520;2022-08-26T08:20:46;4.27;;;3.87;;
28427;SDS011;15662;49.128;8.520;2022-08-26T08:23:31;3.83;;;3.63;;
28427;SDS011;15662;49.128;8.520;2022-08-26T08:26:03;4.78;;;4.35;;
28427;SDS011;15662;49.128;8.520;2022-08-26T08:28:36;5.45;;;3.50;;
28427;SDS011;15662;49.128;8.520;2022-08-26T08:31:07;4.00;;;3.70;;
28427;SDS011;15662;49.128;8.520;2022-08-26T08:33:36;4.35;;;3.97;;
28427;SDS011;15662;49.128;8.520;2022-08-26T08:36:06;3.60;;;3.40;;
28427;SDS011;15662;49.128;8.520;2022-08-26T08:38:38;3.80;;;3.50;;
28427;SDS011;15662;49.128;8.520;2022-08-26T08:44:24;4.05;;;3.75;;
28427;SDS011;15662;49.128;8.520;2022-08-26T08:46:54;4.60;;;3.70;;
28427;SDS011;15662;49.128;8.520;2022-08-26T08:49:28;8.20;;;3.67;;
28427;SDS011;15662;49.128;8.520;2022-08-26T08:52:00;4.20;;;3.88;;
28427;SDS011;15662;49.128;8.520;2022-08-26T08:54:39;4.70;;;3.53;;
28427;SDS011;15662;49.128;8.520;2022-08-26T08:57:11;4.00;;;3.58;;
28427;SDS011;15662;49.128;8.520;2022-08-26T09:00:04;6.72;;;3.60;;
28427;SDS011;15662;49.128;8.520;2022-08-26T09:02:51;7.18;;;5.72;;
28427;SDS011;15662;49.128;8.520;2022-08-26T09:05:35;4.90;;;4.40;;
28427;SDS011;15662;49.128;8.520;2022-08-26T09:08:15;8.63;;;6.05;;
28427;SDS011;15662;49.128;8.520;2022-08-26T09:10:54;5.25;;;4.63;;
28427;SDS011;15662;49.128;8.520;2022-08-26T09:13:27;4.63;;;4.00;;
28427;SDS011;15662;49.128;8.520;2022-08-26T09:21:40;4.40;;;4.00;;
28427;SDS011;15662;49.128;8.520;2022-08-26T09:24:08;4.28;;;3.92;;
28427;SDS011;15662;49.128;8.520;2022-08-26T09:31:53;6.65;;;4.45;;
28427;SDS011;15662;49.128;8.520;2022-08-26T09:37:37;5.85;;;3.95;;
28427;SDS011;15662;49.128;8.520;2022-08-26T09:40:19;4.70;;;4.20;;
28427;SDS011;15662;49.128;8.520;2022-08-26T09:43:39;4.38;;;4.00;;
28427;SDS011;15662;49.128;8.520;2022-08-26T09:45:50;4.53;;;4.13;;
28427;SDS011;15662;49.128;8.520;2022-08-26T09:48:34;4.55;;;4.15;;
28427;SDS011;15662;49.128;8.520;2022-08-26T09:54:00;5.07;;;4.22;;
28427;SDS011;15662;49.128;8.520;2022-08-26T09:56:36;4.60;;;4.20;;
28427;SDS011;15662;49.128;8.520;2022-08-26T09:59:08;9.70;;;6.72;;
28427;SDS011;15662;49.128;8.520;2022-08-26T10:01:41;5.05;;;4.50;;
28427;SDS011;15662;49.128;8.520;2022-08-26T10:04:22;15.30;;;7.65;;
28427;SDS011;15662;49.128;8.520;2022-08-26T10:09:27;9.75;;;6.90;;
28427;SDS011;15662;49.128;8.520;2022-08-26T10:12:10;6.72;;;4.88;;
28427;SDS011;15662;49.128;8.520;2022-08-26T10:14:46;5.22;;;4.70;;
28427;SDS011;15662;49.128;8.520;2022-08-26T10:20:54;4.95;;;4.45;;
28427;SDS011;15662;49.128;8.520;2022-08-26T10:23:35;5.03;;;4.50;;
28427;SDS011;15662;49.128;8.520;2022-08-26T10:26:13;4.70;;;4.22;;
28427;SDS011;15662;49.128;8.520;2022-08-26T10:29:06;7.25;;;4.78;;
28427;SDS011;15662;49.128;8.520;2022-08-26T10:31:50;6.78;;;4.40;;
28427;SDS011;15662;49.128;8.520;2022-08-26T10:34:32;5.25;;;4.82;;
28427;SDS011;15662;49.128;8.520;2022-08-26T10:37:07;5.35;;;4.82;;
28427;SDS011;15662;49.128;8.520;2022-08-26T10:39:51;12.85;;;4.82;;
28427;SDS011;15662;49.128;8.520;2022-08-26T10:42:31;11.20;;;6.32;;
28427;SDS011;15662;49.128;8.520;2022-08-26T10:45:05;6.15;;;4.93;;
28427;SDS011;15662;49.128;8.520;2022-08-26T10:47:50;5.75;;;4.85;;
28427;SDS011;15662;49.128;8.520;2022-08-26T10:50:26;6.78;;;4.50;;
28427;SDS011;15662;49.128;8.520;2022-08-26T11:01:47;9.13;;;6.22;;
28427;SDS011;15662;49.128;8.520;2022-08-26T11:04:59;5.85;;;4.30;;
28427;SDS011;15662;49.128;8.520;2022-08-26T11:10:51;6.35;;;4.50;;
28427;SDS011;15662;49.128;8.520;2022-08-26T11:13:09;4.90;;;4.40;;
28427;SDS011;15662;49.128;8.520;2022-08-26T11:18:07;4.35;;;4.03;;
28427;SDS011;15662;49.128;8.520;2022-08-26T11:20:39;4.82;;;4.35;;
28427;SDS011;15662;49.128;8.520;2022-08-26T11:39:24;4.15;;;3.47;;
28427;SDS011;15662;49.128;8.520;2022-08-26T11:44:54;3.85;;;3.55;;
28427;SDS011;15662;49.128;8.520;2022-08-26T11:47:29;3.63;;;3.30;;
28427;SDS011;15662;49.128;8.520;2022-08-26T11:52:59;3.22;;;2.95;;
28427;SDS011;15662;49.128;8.520;2022-08-26T11:55:33;5.28;;;3.15;;
28427;SDS011;15662;49.128;8.520;2022-08-26T11:58:09;5.25;;;3.25;;
28427;SDS011;15662;49.128;8.520;2022-08-26T12:03:16;3.70;;;3.40;;
28427;SDS011;15662;49.128;8.520;2022-08-26T12:05:51;2.83;;;2.72;;
28427;SDS011;15662;49.128;8.520;2022-08-26T12:08:21;3.40;;;3.03;;
28427;SDS011;15662;49.128;8.520;2022-08-26T12:11:05;3.13;;;2.92;;
28427;SDS011;15662;49.128;8.520;2022-08-26T12:13:36;3.38;;;2.90;;
28427;SDS011;15662;49.128;8.520;2022-08-26T12:16:05;3.00;;;2.80;;
28427;SDS011;15662;49.128;8.520;2022-08-26T12:18:36;2.95;;;2.80;;
28427;SDS011;15662;49.128;8.520;2022-08-26T12:21:12;4.10;;;2.85;;
28427;SDS011;15662;49.128;8.520;2022-08-26T12:24:02;3.10;;;2.90;;
28427;SDS011;15662;49.128;8.520;2022-08-26T12:26:34;4.40;;;3.30;;
28427;SDS011;15662;49.128;8.520;2022-08-26T12:29:24;3.95;;;3.65;;
28427;SDS011;15662;49.128;8.520;2022-08-26T12:32:11;3.53;;;3.30;;
28427;SDS011;15662;49.128;8.520;2022-08-26T12:34:46;3.50;;;3.30;;
28427;SDS011;15662;49.128;8.520;2022-08-26T12:37:16;5.05;;;3.03;;
28427;SDS011;15662;49.128;8.520;2022-08-26T12:39:45;3.25;;;2.95;;
28427;SDS011;15662;49.128;8.520;2022-08-26T12:44:58;3.17;;;2.95;;
28427;SDS011;15662;49.128;8.520;2022-08-26T12:47:31;3.30;;;3.05;;
28427;SDS011;15662;49.128;8.520;2022-08-26T12:55:47;3.92;;;3.03;;
28427;SDS011;15662;49.128;8.520;2022-08-26T13:08:43;3.25;;;2.83;;
28427;SDS011;15662;49.128;8.520;2022-08-26T13:14:14;3.25;;;3.05;;
28427;SDS011;15662;49.128;8.520;2022-08-26T13:16:50;6.85;;;4.53;;
28427;SDS011;15662;49.128;8.520;2022-08-26T13:19:23;6.00;;;2.92;;
28427;SDS011;15662;49.128;8.520;2022-08-26T13:21:52;2.90;;;2.70;;
28427;SDS011;15662;49.128;8.520;2022-08-26T13:27:03;6.40;;;2.80;;
28427;SDS011;15662;49.128;8.520;2022-08-26T13:29:34;2.70;;;2.50;;
28427;SDS011;15662;49.128;8.520;2022-08-26T13:32:04;2.70;;;2.50;;
28427;SDS011;15662;49.128;8.520;2022-08-26T13:34:35;3.42;;;3.13;;
28427;SDS011;15662;49.128;8.520;2022-08-26T13:37:04;3.25;;;2.85;;
28427;SDS011;15662;49.128;8.520;2022-08-26T13:39:33;3.35;;;3.05;;
28427;SDS011;15662;49.128;8.520;2022-08-26T13:42:01;3.28;;;2.97;;
28427;SDS011;15662;49.128;8.520;2022-08-26T13:44:29;2.88;;;2.67;;
28427;SDS011;15662;49.128;8.520;2022-08-26T13:46:58;3.25;;;2.45;;
28427;SDS011;15662;49.128;8.520;2022-08-26T13:49:26;2.83;;;2.60;;
28427;SDS011;15662;49.128;8.520;2022-08-26T13:51:54;2.70;;;2.50;;
28427;SDS011;15662;49.128;8.520;2022-08-26T13:54:22;2.63;;;2.42;;
28427;SDS011;15662;49.128;8.520;2022-08-26T13:56:51;2.97;;;2.78;;
28427;SDS011;15662;49.128;8.520;2022-08-26T13:59:19;2.67;;;2.47;;
28427;SDS011;15662;49.128;8.520;2022-08-26T14:01:47;2.80;;;2.30;;
28427;SDS011;15662;49.128;8.520;2022-08-26T14:04:17;2.88;;;2.60;;
28427;SDS011;15662;49.128;8.520;2022-08-26T14:06:53;3.30;;;2.83;;
28427;SDS011;15662;49.128;8.520;2022-08-26T14:09:21;2.75;;;2.55;;
28427;SDS011;15662;49.128;8.520;2022-08-26T14:11:50;3.10;;;2.90;;
28427;SDS011;15662;49.128;8.520;2022-08-26T14:14:20;2.70;;;2.50;;
28427;SDS011;15662;49.128;8.520;2022-08-26T14:16:49;3.08;;;2.88;;
28427;SDS011;15662;49.128;8.520;2022-08-26T14:19:27;3.15;;;2.85;;
28427;SDS011;15662;49.128;8.520;2022-08-26T14:21:58;3.17;;;2.97;;
28427;SDS011;15662;49.128;8.520;2022-08-26T14:24:27;3.55;;;3.25;;
28427;SDS011;15662;49.128;8.520;2022-08-26T14:26:56;3.45;;;3.15;;
28427;SDS011;15662;49.128;8.520;2022-08-26T14:29:26;3.35;;;3.10;;
28427;SDS011;15662;49.128;8.520;2022-08-26T14:31:55;4.45;;;3.10;;
28427;SDS011;15662;49.128;8.520;2022-08-26T14:34:29;3.50;;;3.30;;
28427;SDS011;15662;49.128;8.520;2022-08-26T14:36:57;5.65;;;3.13;;
28427;SDS011;15662;49.128;8.520;2022-08-26T14:39:34;5.70;;;3.10;;
28427;SDS011;15662;49.128;8.520;2022-08-26T14:42:04;4.95;;;3.30;;
28427;SDS011;15662;49.128;8.520;2022-08-26T14:44:34;5.70;;;3.13;;
28427;SDS011;15662;49.128;8.520;2022-08-26T14:47:04;6.22;;;3.00;;
28427;SDS011;15662;49.128;8.520;2022-08-26T14:49:33;3.97;;;3.42;;
28427;SDS011;15662;49.128;8.520;2022-08-26T14:52:03;3.58;;;3.30;;
28427;SDS011;15662;49.128;8.520;2022-08-26T14:54:31;3.55;;;3.25;;
28427;SDS011;15662;49.128;8.520;2022-08-26T14:57:02;3.58;;;3.38;;
28427;SDS011;15662;49.128;8.520;2022-08-26T14:59:35;3.53;;;3.15;;
28427;SDS011;15662;49.128;8.520;2022-08-26T15:02:07;3.70;;;3.40;;
28427;SDS011;15662;49.128;8.520;2022-08-26T15:04:49;5.82;;;4.10;;
28427;SDS011;15662;49.128;8.520;2022-08-26T15:07:17;4.57;;;3.40;;
28427;SDS011;15662;49.128;8.520;2022-08-26T15:09:46;3.67;;;3.35;;
28427;SDS011;15662;49.128;8.520;2022-08-26T15:12:16;4.70;;;3.40;;
28427;SDS011;15662;49.128;8.520;2022-08-26T15:14:45;6.43;;;4.07;;
28427;SDS011;15662;49.128;8.520;2022-08-26T15:17:15;3.35;;;3.05;;
28427;SDS011;15662;49.128;8.520;2022-08-26T15:19:45;3.20;;;3.00;;
28427;SDS011;15662;49.128;8.520;2022-08-26T15:22:13;3.50;;;3.20;;
28427;SDS011;15662;49.128;8.520;2022-08-26T15:24:41;6.53;;;3.20;;
28427;SDS011;15662;49.128;8.520;2022-08-26T15:27:10;3.80;;;3.20;;
28427;SDS011;15662;49.128;8.520;2022-08-26T15:29:38;3.33;;;3.00;;
28427;SDS011;15662;49.128;8.520;2022-08-26T15:32:07;3.08;;;2.88;;
28427;SDS011;15662;49.128;8.520;2022-08-26T15:34:36;3.42;;;3.13;;
28427;SDS011;15662;49.128;8.520;2022-08-26T15:37:05;2.97;;;2.78;;
28427;SDS011;15662;49.128;8.520;2022-08-26T15:39:33;3.08;;;2.85;;
28427;SDS011;15662;49.128;8.520;2022-08-26T15:42:01;3.13;;;2.90;;
28427;SDS011;15662;49.128;8.520;2022-08-26T15:44:30;3.40;;;2.88;;
28427;SDS011;15662;49.128;8.520;2022-08-26T15:47:00;2.90;;;2.80;;
28427;SDS011;15662;49.128;8.520;2022-08-26T15:49:28;3.03;;;2.70;;
28427;SDS011;15662;49.128;8.520;2022-08-26T15:51:57;3.15;;;2.90;;
28427;SDS011;15662;49.128;8.520;2022-08-26T15:54:25;3.13;;;2.83;;
28427;SDS011;15662;49.128;8.520;2022-08-26T15:56:54;3.00;;;2.80;;
28427;SDS011;15662;49.128;8.520;2022-08-26T15:59:22;3.20;;;3.00;;
28427;SDS011;15662;49.128;8.520;2022-08-26T16:01:51;3.63;;;3.20;;
28427;SDS011;15662;49.128;8.520;2022-08-26T16:04:20;3.00;;;2.80;;
28427;SDS011;15662;49.128;8.520;2022-08-26T16:06:50;3.10;;;2.90;;
28427;SDS011;15662;49.128;8.520;2022-08-26T16:09:20;4.70;;;3.30;;
28427;SDS011;15662;49.128;8.520;2022-08-26T16:11:53;4.38;;;3.38;;
28427;SDS011;15662;49.128;8.520;2022-08-26T16:14:22;3.90;;;3.50;;
28427;SDS011;15662;49.128;8.520;2022-08-26T16:16:51;4.68;;;3.85;;
28427;SDS011;15662;49.128;8.520;2022-08-26T16:19:20;5.40;;;3.20;;
28427;SDS011;15662;49.128;8.520;2022-08-26T16:21:49;6.97;;;3.20;;
28427;SDS011;15662;49.128;8.520;2022-08-26T16:24:18;4.55;;;2.97;;
28427;SDS011;15662;49.128;8.520;2022-08-26T16:26:57;3.10;;;2.53;;
28427;SDS011;15662;49.128;8.520;2022-08-26T16:29:25;3.20;;;2.97;;
28427;SDS011;15662;49.128;8.520;2022-08-26T16:31:54;3.88;;;2.75;;
28427;SDS011;15662;49.128;8.520;2022-08-26T16:34:23;3.33;;;2.70;;
28427;SDS011;15662;49.128;8.520;2022-08-26T16:36:51;3.75;;;3.00;;
28427;SDS011;15662;49.128;8.520;2022-08-26T16:39:19;3.00;;;2.70;;
28427;SDS011;15662;49.128;8.520;2022-08-26T16:41:49;3.33;;;2.63;;
28427;SDS011;15662;49.128;8.520;2022-08-26T16:44:17;3.70;;;2.75;;
28427;SDS011;15662;49.128;8.520;2022-08-26T16:46:45;3.47;;;3.17;;
28427;SDS011;15662;49.128;8.520;2022-08-26T16:49:15;3.30;;;2.65;;
28427;SDS011;15662;49.128;8.520;2022-08-26T16:51:43;3.78;;;3.00;;
28427;SDS011;15662;49.128;8.520;2022-08-26T16:54:12;3.08;;;2.80;;
28427;SDS011;15662;49.128;8.520;2022-08-26T16:56:41;3.10;;;2.80;;
28427;SDS011;15662;49.128;8.520;2022-08-26T16:59:10;5.70;;;2.70;;